sensor_id;sensor_type;location;lat;lon;timestamp;temperature;humidity
24144;DHT22;12307;50.828;6.080;2022-12-18T00:00:43;18.50;46.60
24144;DHT22;12307;50.828;6.080;2022-12-18T00:03:09;18.50;46.70
24144;DHT22;12307;50.828;6.080;2022-12-18T00:05:35;18.50;46.90
24144;DHT22;12307;50.828;6.080;2022-12-18T00:08:01;18.50;46.60
24144;DHT22;12307;50.828;6.080;2022-12-18T00:10:27;18.40;46.60
24144;DHT22;12307;50.828;6.080;2022-12-18T00:12:54;18.50;46.70
24144;DHT22;12307;50.828;6.080;2022-12-18T00:15:20;18.50;46.60
24144;DHT22;12307;50.828;6.080;2022-12-18T00:17:46;18.50;46.50
24144;DHT22;12307;50.828;6.080;2022-12-18T00:20:12;18.40;46.50
24144;DHT22;12307;50.828;6.080;2022-12-18T00:22:37;18.40;46.60
24144;DHT22;12307;50.828;6.080;2022-12-18T00:25:04;18.40;46.10
24144;DHT22;12307;50.828;6.080;2022-12-18T00:27:29;18.50;46.50
24144;DHT22;12307;50.828;6.080;2022-12-18T00:29:56;18.40;46.40
24144;DHT22;12307;50.828;6.080;2022-12-18T00:32:22;18.40;46.20
24144;DHT22;12307;50.828;6.080;2022-12-18T00:34:48;18.40;46.50
24144;DHT22;12307;50.828;6.080;2022-12-18T00:37:13;18.40;46.20
24144;DHT22;12307;50.828;6.080;2022-12-18T00:39:39;18.40;46.30
24144;DHT22;12307;50.828;6.080;2022-12-18T00:42:05;18.50;46.50
24144;DHT22;12307;50.828;6.080;2022-12-18T00:44:49;18.40;46.50
24144;DHT22;12307;50.828;6.080;2022-12-18T00:47:16;18.40;46.40
24144;DHT22;12307;50.828;6.080;2022-12-18T00:49:41;18.40;46.40
24144;DHT22;12307;50.828;6.080;2022-12-18T00:52:07;18.40;46.20
24144;DHT22;12307;50.828;6.080;2022-12-18T00:54:33;18.40;46.30
24144;DHT22;12307;50.828;6.080;2022-12-18T00:56:59;18.40;46.10
24144;DHT22;12307;50.828;6.080;2022-12-18T00:59:24;18.50;46.50
24144;DHT22;12307;50.828;6.080;2022-12-18T01:01:50;18.40;46.10
24144;DHT22;12307;50.828;6.080;2022-12-18T01:04:17;18.50;46.40
24144;DHT22;12307;50.828;6.080;2022-12-18T01:06:43;18.40;46.10
24144;DHT22;12307;50.828;6.080;2022-12-18T01:09:09;18.40;46.30
24144;DHT22;12307;50.828;6.080;2022-12-18T01:11:34;18.40;46.00
24144;DHT22;12307;50.828;6.080;2022-12-18T01:14:00;18.40;46.00
24144;DHT22;12307;50.828;6.080;2022-12-18T01:16:26;18.40;46.40
24144;DHT22;12307;50.828;6.080;2022-12-18T01:18:53;18.40;46.10
24144;DHT22;12307;50.828;6.080;2022-12-18T01:21:22;18.40;46.30
24144;DHT22;12307;50.828;6.080;2022-12-18T01:23:51;18.40;46.10
24144;DHT22;12307;50.828;6.080;2022-12-18T01:26:17;18.40;46.00
24144;DHT22;12307;50.828;6.080;2022-12-18T01:28:43;18.40;45.90
24144;DHT22;12307;50.828;6.080;2022-12-18T01:31:15;18.40;46.00
24144;DHT22;12307;50.828;6.080;2022-12-18T01:33:41;18.40;46.10
24144;DHT22;12307;50.828;6.080;2022-12-18T01:36:08;18.40;45.80
24144;DHT22;12307;50.828;6.080;2022-12-18T01:38:35;18.40;46.10
24144;DHT22;12307;50.828;6.080;2022-12-18T01:41:01;18.40;46.30
24144;DHT22;12307;50.828;6.080;2022-12-18T01:43:48;18.40;45.90
24144;DHT22;12307;50.828;6.080;2022-12-18T01:46:15;18.40;46.00
24144;DHT22;12307;50.828;6.080;2022-12-18T01:48:41;18.40;46.10
24144;DHT22;12307;50.828;6.080;2022-12-18T01:51:10;18.40;46.10
24144;DHT22;12307;50.828;6.080;2022-12-18T01:53:39;18.40;46.10
24144;DHT22;12307;50.828;6.080;2022-12-18T01:56:06;18.40;46.10
24144;DHT22;12307;50.828;6.080;2022-12-18T01:58:36;18.40;46.10
24144;DHT22;12307;50.828;6.080;2022-12-18T02:01:05;18.40;46.10
24144;DHT22;12307;50.828;6.080;2022-12-18T02:03:30;18.40;45.70
24144;DHT22;12307;50.828;6.080;2022-12-18T02:06:01;18.40;46.10
24144;DHT22;12307;50.828;6.080;2022-12-18T02:08:34;18.40;46.50
24144;DHT22;12307;50.828;6.080;2022-12-18T02:11:06;18.40;46.00
24144;DHT22;12307;50.828;6.080;2022-12-18T02:13:39;18.40;45.90
24144;DHT22;12307;50.828;6.080;2022-12-18T02:16:10;18.40;46.20
24144;DHT22;12307;50.828;6.080;2022-12-18T02:18:40;18.40;45.90
24144;DHT22;12307;50.828;6.080;2022-12-18T02:21:14;18.40;45.70
24144;DHT22;12307;50.828;6.080;2022-12-18T02:23:49;18.40;46.30
24144;DHT22;12307;50.828;6.080;2022-12-18T02:26:22;18.30;45.70
24144;DHT22;12307;50.828;6.080;2022-12-18T02:28:53;18.30;45.70
24144;DHT22;12307;50.828;6.080;2022-12-18T02:31:23;18.30;45.80
24144;DHT22;12307;50.828;6.080;2022-12-18T02:33:51;18.40;45.80
24144;DHT22;12307;50.828;6.080;2022-12-18T02:36:18;18.30;45.70
24144;DHT22;12307;50.828;6.080;2022-12-18T02:38:46;18.30;45.60
24144;DHT22;12307;50.828;6.080;2022-12-18T02:41:13;18.40;45.70
24144;DHT22;12307;50.828;6.080;2022-12-18T02:43:46;18.40;45.70
24144;DHT22;12307;50.828;6.080;2022-12-18T02:46:37;18.40;45.70
24144;DHT22;12307;50.828;6.080;2022-12-18T02:49:16;18.30;45.70
24144;DHT22;12307;50.828;6.080;2022-12-18T02:51:50;18.40;45.80
24144;DHT22;12307;50.828;6.080;2022-12-18T02:54:24;18.40;45.50
24144;DHT22;12307;50.828;6.080;2022-12-18T02:56:55;18.40;45.60
24144;DHT22;12307;50.828;6.080;2022-12-18T02:59:30;18.30;45.80
24144;DHT22;12307;50.828;6.080;2022-12-18T03:02:01;18.40;45.80
24144;DHT22;12307;50.828;6.080;2022-12-18T03:04:31;18.40;45.80
24144;DHT22;12307;50.828;6.080;2022-12-18T03:07:02;18.40;45.80
24144;DHT22;12307;50.828;6.080;2022-12-18T03:09:32;18.30;45.80
24144;DHT22;12307;50.828;6.080;2022-12-18T03:12:04;18.30;45.50
24144;DHT22;12307;50.828;6.080;2022-12-18T03:14:53;18.30;45.50
24144;DHT22;12307;50.828;6.080;2022-12-18T03:17:23;18.40;45.70
24144;DHT22;12307;50.828;6.080;2022-12-18T03:19:51;18.30;45.50
24144;DHT22;12307;50.828;6.080;2022-12-18T03:22:18;18.30;45.60
24144;DHT22;12307;50.828;6.080;2022-12-18T03:24:45;18.30;45.30
24144;DHT22;12307;50.828;6.080;2022-12-18T03:27:14;18.30;45.70
24144;DHT22;12307;50.828;6.080;2022-12-18T03:29:46;18.30;45.30
24144;DHT22;12307;50.828;6.080;2022-12-18T03:32:21;18.30;45.30
24144;DHT22;12307;50.828;6.080;2022-12-18T03:34:50;18.30;45.40
24144;DHT22;12307;50.828;6.080;2022-12-18T03:37:17;18.30;45.40
24144;DHT22;12307;50.828;6.080;2022-12-18T03:39:43;18.30;45.30
24144;DHT22;12307;50.828;6.080;2022-12-18T03:42:12;18.30;45.40
24144;DHT22;12307;50.828;6.080;2022-12-18T03:44:42;18.30;45.50
24144;DHT22;12307;50.828;6.080;2022-12-18T03:47:16;18.30;45.80
24144;DHT22;12307;50.828;6.080;2022-12-18T03:49:47;18.30;45.50
24144;DHT22;12307;50.828;6.080;2022-12-18T03:52:17;18.30;45.70
24144;DHT22;12307;50.828;6.080;2022-12-18T03:54:44;18.30;45.40
24144;DHT22;12307;50.828;6.080;2022-12-18T03:57:16;18.30;45.40
24144;DHT22;12307;50.828;6.080;2022-12-18T03:59:43;18.30;45.40
24144;DHT22;12307;50.828;6.080;2022-12-18T04:02:09;18.30;45.40
24144;DHT22;12307;50.828;6.080;2022-12-18T04:04:38;18.30;45.70
24144;DHT22;12307;50.828;6.080;2022-12-18T04:07:05;18.30;45.50
24144;DHT22;12307;50.828;6.080;2022-12-18T04:09:33;18.30;45.50
24144;DHT22;12307;50.828;6.080;2022-12-18T04:12:00;18.30;45.20
24144;DHT22;12307;50.828;6.080;2022-12-18T04:14:26;18.30;45.10
24144;DHT22;12307;50.828;6.080;2022-12-18T04:16:51;18.30;45.60
24144;DHT22;12307;50.828;6.080;2022-12-18T04:19:17;18.30;45.30
24144;DHT22;12307;50.828;6.080;2022-12-18T04:21:44;18.30;45.20
24144;DHT22;12307;50.828;6.080;2022-12-18T04:24:10;18.30;45.20
24144;DHT22;12307;50.828;6.080;2022-12-18T04:26:36;18.30;45.40
24144;DHT22;12307;50.828;6.080;2022-12-18T04:29:02;18.30;45.20
24144;DHT22;12307;50.828;6.080;2022-12-18T04:31:28;18.30;45.20
24144;DHT22;12307;50.828;6.080;2022-12-18T04:33:53;18.30;45.40
24144;DHT22;12307;50.828;6.080;2022-12-18T04:36:19;18.30;45.30
24144;DHT22;12307;50.828;6.080;2022-12-18T04:38:46;18.30;45.30
24144;DHT22;12307;50.828;6.080;2022-12-18T04:41:12;18.30;45.30
24144;DHT22;12307;50.828;6.080;2022-12-18T04:43:38;18.30;45.10
24144;DHT22;12307;50.828;6.080;2022-12-18T04:46:04;18.30;45.30
24144;DHT22;12307;50.828;6.080;2022-12-18T04:48:30;18.30;45.40
24144;DHT22;12307;50.828;6.080;2022-12-18T04:50:55;18.30;45.20
24144;DHT22;12307;50.828;6.080;2022-12-18T04:53:21;18.30;45.30
24144;DHT22;12307;50.828;6.080;2022-12-18T04:55:48;18.30;45.10
24144;DHT22;12307;50.828;6.080;2022-12-18T04:58:14;18.30;45.30
24144;DHT22;12307;50.828;6.080;2022-12-18T05:00:40;18.30;44.90
24144;DHT22;12307;50.828;6.080;2022-12-18T05:03:05;18.30;45.20
24144;DHT22;12307;50.828;6.080;2022-12-18T05:05:31;18.30;45.40
24144;DHT22;12307;50.828;6.080;2022-12-18T05:07:59;18.30;45.30
24144;DHT22;12307;50.828;6.080;2022-12-18T05:10:25;18.30;45.40
24144;DHT22;12307;50.828;6.080;2022-12-18T05:12:52;18.30;45.90
24144;DHT22;12307;50.828;6.080;2022-12-18T05:15:24;18.30;45.30
24144;DHT22;12307;50.828;6.080;2022-12-18T05:17:51;18.30;45.30
24144;DHT22;12307;50.828;6.080;2022-12-18T05:20:17;18.30;45.00
24144;DHT22;12307;50.828;6.080;2022-12-18T05:22:43;18.30;45.20
24144;DHT22;12307;50.828;6.080;2022-12-18T05:25:09;18.30;45.00
24144;DHT22;12307;50.828;6.080;2022-12-18T05:27:35;18.30;45.30
24144;DHT22;12307;50.828;6.080;2022-12-18T05:30:02;18.30;45.00
24144;DHT22;12307;50.828;6.080;2022-12-18T05:32:28;18.30;45.10
24144;DHT22;12307;50.828;6.080;2022-12-18T05:34:54;18.30;44.80
24144;DHT22;12307;50.828;6.080;2022-12-18T05:37:19;18.30;44.90
24144;DHT22;12307;50.828;6.080;2022-12-18T05:39:46;18.30;45.10
24144;DHT22;12307;50.828;6.080;2022-12-18T05:42:11;18.30;45.10
24144;DHT22;12307;50.828;6.080;2022-12-18T05:44:37;18.30;45.10
24144;DHT22;12307;50.828;6.080;2022-12-18T05:47:04;18.30;45.30
24144;DHT22;12307;50.828;6.080;2022-12-18T05:49:30;18.30;44.80
24144;DHT22;12307;50.828;6.080;2022-12-18T05:51:56;18.30;45.00
24144;DHT22;12307;50.828;6.080;2022-12-18T05:54:21;18.30;45.10
24144;DHT22;12307;50.828;6.080;2022-12-18T05:56:47;18.30;45.10
24144;DHT22;12307;50.828;6.080;2022-12-18T05:59:13;18.30;45.20
24144;DHT22;12307;50.828;6.080;2022-12-18T06:01:38;18.30;44.90
24144;DHT22;12307;50.828;6.080;2022-12-18T06:04:05;18.30;45.00
24144;DHT22;12307;50.828;6.080;2022-12-18T06:06:31;18.30;44.90
24144;DHT22;12307;50.828;6.080;2022-12-18T06:08:57;18.30;44.90
24144;DHT22;12307;50.828;6.080;2022-12-18T06:11:24;18.30;44.90
24144;DHT22;12307;50.828;6.080;2022-12-18T06:13:51;18.30;45.30
24144;DHT22;12307;50.828;6.080;2022-12-18T06:16:17;18.30;45.10
24144;DHT22;12307;50.828;6.080;2022-12-18T06:18:43;18.30;44.60
24144;DHT22;12307;50.828;6.080;2022-12-18T06:21:10;18.30;44.80
24144;DHT22;12307;50.828;6.080;2022-12-18T06:23:36;18.20;44.90
24144;DHT22;12307;50.828;6.080;2022-12-18T06:26:04;18.30;44.70
24144;DHT22;12307;50.828;6.080;2022-12-18T06:28:29;18.20;44.90
24144;DHT22;12307;50.828;6.080;2022-12-18T06:30:55;18.20;44.80
24144;DHT22;12307;50.828;6.080;2022-12-18T06:33:21;18.20;44.60
24144;DHT22;12307;50.828;6.080;2022-12-18T06:35:46;18.20;44.90
24144;DHT22;12307;50.828;6.080;2022-12-18T06:38:13;18.20;44.70
24144;DHT22;12307;50.828;6.080;2022-12-18T06:40:39;18.30;44.80
24144;DHT22;12307;50.828;6.080;2022-12-18T06:43:05;18.30;44.60
24144;DHT22;12307;50.828;6.080;2022-12-18T06:45:31;18.20;45.00
24144;DHT22;12307;50.828;6.080;2022-12-18T06:47:57;18.30;45.00
24144;DHT22;12307;50.828;6.080;2022-12-18T06:50:22;18.30;44.70
24144;DHT22;12307;50.828;6.080;2022-12-18T06:52:48;18.20;44.90
24144;DHT22;12307;50.828;6.080;2022-12-18T06:55:15;18.20;44.80
24144;DHT22;12307;50.828;6.080;2022-12-18T06:57:41;18.20;44.70
24144;DHT22;12307;50.828;6.080;2022-12-18T07:00:07;18.30;45.00
24144;DHT22;12307;50.828;6.080;2022-12-18T07:02:33;18.30;44.70
24144;DHT22;12307;50.828;6.080;2022-12-18T07:04:59;18.20;44.70
24144;DHT22;12307;50.828;6.080;2022-12-18T07:07:25;18.20;44.80
24144;DHT22;12307;50.828;6.080;2022-12-18T07:09:51;18.30;44.70
24144;DHT22;12307;50.828;6.080;2022-12-18T07:12:18;18.20;44.70
24144;DHT22;12307;50.828;6.080;2022-12-18T07:14:44;18.20;44.60
24144;DHT22;12307;50.828;6.080;2022-12-18T07:17:10;18.30;44.80
24144;DHT22;12307;50.828;6.080;2022-12-18T07:19:36;18.20;44.60
24144;DHT22;12307;50.828;6.080;2022-12-18T07:22:01;18.30;44.70
24144;DHT22;12307;50.828;6.080;2022-12-18T07:24:27;18.20;44.60
24144;DHT22;12307;50.828;6.080;2022-12-18T07:26:53;18.20;44.30
24144;DHT22;12307;50.828;6.080;2022-12-18T07:29:21;18.20;44.80
24144;DHT22;12307;50.828;6.080;2022-12-18T07:31:46;18.20;44.50
24144;DHT22;12307;50.828;6.080;2022-12-18T07:34:12;18.20;45.10
24144;DHT22;12307;50.828;6.080;2022-12-18T07:36:38;18.30;44.40
24144;DHT22;12307;50.828;6.080;2022-12-18T07:39:04;18.20;44.40
24144;DHT22;12307;50.828;6.080;2022-12-18T07:41:29;18.20;44.60
24144;DHT22;12307;50.828;6.080;2022-12-18T07:43:55;18.30;44.60
24144;DHT22;12307;50.828;6.080;2022-12-18T07:46:22;18.20;44.40
24144;DHT22;12307;50.828;6.080;2022-12-18T07:48:48;18.20;44.50
24144;DHT22;12307;50.828;6.080;2022-12-18T07:51:14;18.30;44.60
24144;DHT22;12307;50.828;6.080;2022-12-18T07:53:40;18.30;44.60
24144;DHT22;12307;50.828;6.080;2022-12-18T07:56:08;18.20;44.70
24144;DHT22;12307;50.828;6.080;2022-12-18T07:58:35;18.30;44.50
24144;DHT22;12307;50.828;6.080;2022-12-18T08:01:05;18.30;44.60
24144;DHT22;12307;50.828;6.080;2022-12-18T08:03:32;18.30;44.60
24144;DHT22;12307;50.828;6.080;2022-12-18T08:05:59;18.30;44.60
24144;DHT22;12307;50.828;6.080;2022-12-18T08:08:25;18.20;44.40
24144;DHT22;12307;50.828;6.080;2022-12-18T08:10:51;18.30;44.20
24144;DHT22;12307;50.828;6.080;2022-12-18T08:13:16;18.30;44.20
24144;DHT22;12307;50.828;6.080;2022-12-18T08:15:42;18.30;44.50
24144;DHT22;12307;50.828;6.080;2022-12-18T08:18:08;18.30;44.20
24144;DHT22;12307;50.828;6.080;2022-12-18T08:20:35;18.30;44.20
24144;DHT22;12307;50.828;6.080;2022-12-18T08:23:00;18.30;44.10
24144;DHT22;12307;50.828;6.080;2022-12-18T08:25:26;18.30;44.10
24144;DHT22;12307;50.828;6.080;2022-12-18T08:27:52;18.30;44.00
24144;DHT22;12307;50.828;6.080;2022-12-18T08:30:18;18.30;44.30
24144;DHT22;12307;50.828;6.080;2022-12-18T08:32:43;18.30;44.00
24144;DHT22;12307;50.828;6.080;2022-12-18T08:35:09;18.30;44.00
24144;DHT22;12307;50.828;6.080;2022-12-18T08:37:38;18.30;44.00
24144;DHT22;12307;50.828;6.080;2022-12-18T08:40:05;18.40;44.00
24144;DHT22;12307;50.828;6.080;2022-12-18T08:42:31;18.40;43.90
24144;DHT22;12307;50.828;6.080;2022-12-18T08:45:15;18.40;43.90
24144;DHT22;12307;50.828;6.080;2022-12-18T08:47:42;18.40;44.20
24144;DHT22;12307;50.828;6.080;2022-12-18T08:50:09;18.40;44.10
24144;DHT22;12307;50.828;6.080;2022-12-18T08:52:35;18.50;43.80
24144;DHT22;12307;50.828;6.080;2022-12-18T08:55:02;18.50;43.90
24144;DHT22;12307;50.828;6.080;2022-12-18T08:57:28;18.50;44.10
24144;DHT22;12307;50.828;6.080;2022-12-18T08:59:53;18.50;44.10
24144;DHT22;12307;50.828;6.080;2022-12-18T09:02:19;18.50;44.50
24144;DHT22;12307;50.828;6.080;2022-12-18T09:04:46;18.50;44.10
24144;DHT22;12307;50.828;6.080;2022-12-18T09:07:12;18.50;44.40
24144;DHT22;12307;50.828;6.080;2022-12-18T09:09:38;18.50;44.00
24144;DHT22;12307;50.828;6.080;2022-12-18T09:12:05;18.60;44.10
24144;DHT22;12307;50.828;6.080;2022-12-18T09:14:31;18.60;44.60
24144;DHT22;12307;50.828;6.080;2022-12-18T09:16:56;18.60;44.20
24144;DHT22;12307;50.828;6.080;2022-12-18T09:19:22;18.60;43.90
24144;DHT22;12307;50.828;6.080;2022-12-18T09:21:48;18.60;43.80
24144;DHT22;12307;50.828;6.080;2022-12-18T09:24:17;18.70;43.70
24144;DHT22;12307;50.828;6.080;2022-12-18T09:26:43;18.70;43.80
24144;DHT22;12307;50.828;6.080;2022-12-18T09:29:10;18.70;44.30
24144;DHT22;12307;50.828;6.080;2022-12-18T09:31:36;18.70;43.60
24144;DHT22;12307;50.828;6.080;2022-12-18T09:34:03;18.80;43.60
24144;DHT22;12307;50.828;6.080;2022-12-18T09:36:32;18.80;44.20
24144;DHT22;12307;50.828;6.080;2022-12-18T09:38:57;18.80;43.80
24144;DHT22;12307;50.828;6.080;2022-12-18T09:41:39;18.80;44.00
24144;DHT22;12307;50.828;6.080;2022-12-18T09:44:24;18.90;43.60
24144;DHT22;12307;50.828;6.080;2022-12-18T09:46:54;18.90;44.20
24144;DHT22;12307;50.828;6.080;2022-12-18T09:49:28;18.90;44.20
24144;DHT22;12307;50.828;6.080;2022-12-18T09:51:57;18.90;43.80
24144;DHT22;12307;50.828;6.080;2022-12-18T09:54:33;18.90;43.60
24144;DHT22;12307;50.828;6.080;2022-12-18T09:57:01;18.90;43.80
24144;DHT22;12307;50.828;6.080;2022-12-18T09:59:32;19.00;43.80
24144;DHT22;12307;50.828;6.080;2022-12-18T10:01:59;19.00;43.60
24144;DHT22;12307;50.828;6.080;2022-12-18T10:04:27;19.00;43.60
24144;DHT22;12307;50.828;6.080;2022-12-18T10:07:01;19.00;43.80
24144;DHT22;12307;50.828;6.080;2022-12-18T10:09:36;19.00;43.70
24144;DHT22;12307;50.828;6.080;2022-12-18T10:12:07;19.00;43.50
24144;DHT22;12307;50.828;6.080;2022-12-18T10:14:42;19.00;43.50
24144;DHT22;12307;50.828;6.080;2022-12-18T10:17:17;19.10;43.60
24144;DHT22;12307;50.828;6.080;2022-12-18T10:19:48;19.10;43.50
24144;DHT22;12307;50.828;6.080;2022-12-18T10:22:25;19.10;43.30
24144;DHT22;12307;50.828;6.080;2022-12-18T10:24:58;19.10;43.40
24144;DHT22;12307;50.828;6.080;2022-12-18T10:27:27;19.20;43.50
24144;DHT22;12307;50.828;6.080;2022-12-18T10:29:55;19.20;43.50
24144;DHT22;12307;50.828;6.080;2022-12-18T10:32:22;19.20;43.50
24144;DHT22;12307;50.828;6.080;2022-12-18T10:34:52;19.20;43.50
24144;DHT22;12307;50.828;6.080;2022-12-18T10:37:21;19.20;43.60
24144;DHT22;12307;50.828;6.080;2022-12-18T10:40:06;19.20;43.30
24144;DHT22;12307;50.828;6.080;2022-12-18T10:42:32;19.20;43.70
24144;DHT22;12307;50.828;6.080;2022-12-18T10:45:09;19.20;43.50
24144;DHT22;12307;50.828;6.080;2022-12-18T10:47:35;19.20;43.50
24144;DHT22;12307;50.828;6.080;2022-12-18T10:50:01;19.20;43.80
24144;DHT22;12307;50.828;6.080;2022-12-18T10:52:27;19.30;43.70
24144;DHT22;12307;50.828;6.080;2022-12-18T10:54:55;19.30;43.80
24144;DHT22;12307;50.828;6.080;2022-12-18T10:57:35;19.30;43.50
24144;DHT22;12307;50.828;6.080;2022-12-18T11:00:22;19.30;43.50
24144;DHT22;12307;50.828;6.080;2022-12-18T11:02:49;19.30;43.60
24144;DHT22;12307;50.828;6.080;2022-12-18T11:05:27;19.30;43.80
24144;DHT22;12307;50.828;6.080;2022-12-18T11:07:53;19.30;43.60
24144;DHT22;12307;50.828;6.080;2022-12-18T11:10:27;19.20;43.80
24144;DHT22;12307;50.828;6.080;2022-12-18T11:12:54;19.20;43.70
24144;DHT22;12307;50.828;6.080;2022-12-18T11:15:23;19.20;43.70
24144;DHT22;12307;50.828;6.080;2022-12-18T11:17:51;19.20;43.80
24144;DHT22;12307;50.828;6.080;2022-12-18T11:20:28;19.20;44.20
24144;DHT22;12307;50.828;6.080;2022-12-18T11:22:56;19.20;44.00
24144;DHT22;12307;50.828;6.080;2022-12-18T11:25:23;19.20;44.60
24144;DHT22;12307;50.828;6.080;2022-12-18T11:27:51;19.20;44.00
24144;DHT22;12307;50.828;6.080;2022-12-18T11:30:24;19.20;44.00
24144;DHT22;12307;50.828;6.080;2022-12-18T11:32:54;19.20;44.00
24144;DHT22;12307;50.828;6.080;2022-12-18T11:35:26;19.20;44.00
24144;DHT22;12307;50.828;6.080;2022-12-18T11:37:56;19.20;44.00
24144;DHT22;12307;50.828;6.080;2022-12-18T11:40:29;19.10;44.10
24144;DHT22;12307;50.828;6.080;2022-12-18T11:43:02;19.10;44.10
24144;DHT22;12307;50.828;6.080;2022-12-18T11:45:31;19.10;44.40
24144;DHT22;12307;50.828;6.080;2022-12-18T11:48:03;19.10;44.40
24144;DHT22;12307;50.828;6.080;2022-12-18T11:50:34;19.10;44.40
24144;DHT22;12307;50.828;6.080;2022-12-18T11:53:03;19.00;44.20
24144;DHT22;12307;50.828;6.080;2022-12-18T11:55:35;19.00;44.80
24144;DHT22;12307;50.828;6.080;2022-12-18T11:58:08;19.00;44.50
24144;DHT22;12307;50.828;6.080;2022-12-18T12:00:43;19.00;44.60
24144;DHT22;12307;50.828;6.080;2022-12-18T12:03:22;19.00;44.60
24144;DHT22;12307;50.828;6.080;2022-12-18T12:05:58;19.00;44.70
24144;DHT22;12307;50.828;6.080;2022-12-18T12:08:34;19.00;44.50
24144;DHT22;12307;50.828;6.080;2022-12-18T12:11:07;19.00;44.40
24144;DHT22;12307;50.828;6.080;2022-12-18T12:13:43;19.00;44.80
24144;DHT22;12307;50.828;6.080;2022-12-18T12:16:18;19.00;44.70
24144;DHT22;12307;50.828;6.080;2022-12-18T12:19:03;19.00;44.80
24144;DHT22;12307;50.828;6.080;2022-12-18T12:21:37;19.00;44.50
24144;DHT22;12307;50.828;6.080;2022-12-18T12:24:17;19.00;44.80
24144;DHT22;12307;50.828;6.080;2022-12-18T12:26:52;19.00;44.70
24144;DHT22;12307;50.828;6.080;2022-12-18T12:29:34;19.00;44.30
24144;DHT22;12307;50.828;6.080;2022-12-18T12:32:13;19.00;44.40
24144;DHT22;12307;50.828;6.080;2022-12-18T12:34:47;19.00;44.40
24144;DHT22;12307;50.828;6.080;2022-12-18T12:37:21;19.00;44.40
24144;DHT22;12307;50.828;6.080;2022-12-18T12:39:51;19.00;44.20
24144;DHT22;12307;50.828;6.080;2022-12-18T12:42:21;19.00;44.40
24144;DHT22;12307;50.828;6.080;2022-12-18T12:45:14;19.00;44.50
24144;DHT22;12307;50.828;6.080;2022-12-18T12:47:44;19.00;44.40
24144;DHT22;12307;50.828;6.080;2022-12-18T12:50:14;19.00;44.60
24144;DHT22;12307;50.828;6.080;2022-12-18T12:52:43;19.00;44.40
24144;DHT22;12307;50.828;6.080;2022-12-18T12:55:15;19.00;44.40
24144;DHT22;12307;50.828;6.080;2022-12-18T12:57:45;19.00;44.70
24144;DHT22;12307;50.828;6.080;2022-12-18T13:00:14;19.00;44.60
24144;DHT22;12307;50.828;6.080;2022-12-18T13:02:48;19.00;44.70
24144;DHT22;12307;50.828;6.080;2022-12-18T13:05:21;19.00;44.80
24144;DHT22;12307;50.828;6.080;2022-12-18T13:07:52;19.00;44.70
24144;DHT22;12307;50.828;6.080;2022-12-18T13:10:30;19.00;45.20
24144;DHT22;12307;50.828;6.080;2022-12-18T13:12:58;19.00;44.90
24144;DHT22;12307;50.828;6.080;2022-12-18T13:15:28;19.00;44.70
24144;DHT22;12307;50.828;6.080;2022-12-18T13:18:13;19.00;44.80
24144;DHT22;12307;50.828;6.080;2022-12-18T13:20:40;19.00;44.90
24144;DHT22;12307;50.828;6.080;2022-12-18T13:23:26;19.00;44.80
24144;DHT22;12307;50.828;6.080;2022-12-18T13:25:53;19.00;44.70
24144;DHT22;12307;50.828;6.080;2022-12-18T13:28:21;18.90;45.40
24144;DHT22;12307;50.828;6.080;2022-12-18T13:30:52;19.00;45.00
24144;DHT22;12307;50.828;6.080;2022-12-18T13:33:38;19.00;44.90
24144;DHT22;12307;50.828;6.080;2022-12-18T13:36:13;18.90;45.00
24144;DHT22;12307;50.828;6.080;2022-12-18T13:38:39;18.90;44.80
24144;DHT22;12307;50.828;6.080;2022-12-18T13:41:22;19.00;44.50
24144;DHT22;12307;50.828;6.080;2022-12-18T13:43:48;18.90;44.70
24144;DHT22;12307;50.828;6.080;2022-12-18T13:46:20;18.90;44.70
24144;DHT22;12307;50.828;6.080;2022-12-18T13:48:57;18.90;44.60
24144;DHT22;12307;50.828;6.080;2022-12-18T13:51:24;18.90;45.20
24144;DHT22;12307;50.828;6.080;2022-12-18T13:53:52;18.90;45.10
24144;DHT22;12307;50.828;6.080;2022-12-18T13:56:22;18.90;45.10
24144;DHT22;12307;50.828;6.080;2022-12-18T13:59:11;18.90;44.70
24144;DHT22;12307;50.828;6.080;2022-12-18T14:01:42;18.90;45.00
24144;DHT22;12307;50.828;6.080;2022-12-18T14:04:11;18.90;44.90
24144;DHT22;12307;50.828;6.080;2022-12-18T14:06:37;18.90;44.80
24144;DHT22;12307;50.828;6.080;2022-12-18T14:09:03;18.90;45.10
24144;DHT22;12307;50.828;6.080;2022-12-18T14:11:29;18.90;44.70
24144;DHT22;12307;50.828;6.080;2022-12-18T14:13:56;18.90;45.00
24144;DHT22;12307;50.828;6.080;2022-12-18T14:16:22;18.90;45.40
24144;DHT22;12307;50.828;6.080;2022-12-18T14:18:51;18.80;45.10
24144;DHT22;12307;50.828;6.080;2022-12-18T14:21:21;18.90;45.00
24144;DHT22;12307;50.828;6.080;2022-12-18T14:23:48;18.90;44.90
24144;DHT22;12307;50.828;6.080;2022-12-18T14:26:23;18.90;45.10
24144;DHT22;12307;50.828;6.080;2022-12-18T14:28:50;18.80;45.20
24144;DHT22;12307;50.828;6.080;2022-12-18T14:31:18;18.90;45.10
24144;DHT22;12307;50.828;6.080;2022-12-18T14:33:43;18.80;45.10
24144;DHT22;12307;50.828;6.080;2022-12-18T14:36:15;18.80;45.10
24144;DHT22;12307;50.828;6.080;2022-12-18T14:38:43;18.80;45.00
24144;DHT22;12307;50.828;6.080;2022-12-18T14:41:14;18.80;44.90
24144;DHT22;12307;50.828;6.080;2022-12-18T14:43:41;18.80;45.10
24144;DHT22;12307;50.828;6.080;2022-12-18T14:46:28;18.80;45.10
24144;DHT22;12307;50.828;6.080;2022-12-18T14:48:55;18.80;45.10
24144;DHT22;12307;50.828;6.080;2022-12-18T14:51:22;18.80;45.20
24144;DHT22;12307;50.828;6.080;2022-12-18T14:53:54;18.80;45.20
24144;DHT22;12307;50.828;6.080;2022-12-18T14:56:23;18.80;45.10
24144;DHT22;12307;50.828;6.080;2022-12-18T14:58:52;18.80;45.10
24144;DHT22;12307;50.828;6.080;2022-12-18T15:01:24;18.80;45.30
24144;DHT22;12307;50.828;6.080;2022-12-18T15:03:51;18.80;45.60
24144;DHT22;12307;50.828;6.080;2022-12-18T15:06:23;18.80;45.20
24144;DHT22;12307;50.828;6.080;2022-12-18T15:08:50;18.80;45.20
24144;DHT22;12307;50.828;6.080;2022-12-18T15:11:27;18.80;45.00
24144;DHT22;12307;50.828;6.080;2022-12-18T15:13:53;18.80;45.00
24144;DHT22;12307;50.828;6.080;2022-12-18T15:16:19;18.80;45.40
24144;DHT22;12307;50.828;6.080;2022-12-18T15:18:45;18.80;45.50
24144;DHT22;12307;50.828;6.080;2022-12-18T15:21:18;18.80;45.10
24144;DHT22;12307;50.828;6.080;2022-12-18T15:23:47;18.80;45.20
24144;DHT22;12307;50.828;6.080;2022-12-18T15:26:16;18.80;44.90
24144;DHT22;12307;50.828;6.080;2022-12-18T15:28:45;18.80;45.50
24144;DHT22;12307;50.828;6.080;2022-12-18T15:31:23;18.70;45.60
24144;DHT22;12307;50.828;6.080;2022-12-18T15:34:11;18.70;45.30
24144;DHT22;12307;50.828;6.080;2022-12-18T15:36:38;18.70;45.50
24144;DHT22;12307;50.828;6.080;2022-12-18T15:39:04;18.70;45.80
24144;DHT22;12307;50.828;6.080;2022-12-18T15:41:33;18.70;45.70